createdAt,value
2023-01-12T00:02:25.364Z,16.05
2023-01-12T00:04:53.596Z,16.17
2023-01-12T00:07:21.662Z,15.93
2023-01-12T00:09:49.651Z,15.07
2023-01-12T00:12:17.657Z,15.07
2023-01-12T00:14:45.777Z,14.70
2023-01-12T00:17:17.645Z,15.07
2023-01-12T00:19:45.739Z,15.13
2023-01-12T00:22:14.297Z,14.18
2023-01-12T00:24:44.533Z,13.13
2023-01-12T00:27:15.343Z,11.98
2023-01-12T00:29:43.788Z,11.43
2023-01-12T00:32:15.077Z,10.23
2023-01-12T00:34:43.231Z,9.88
2023-01-12T00:37:11.809Z,9.82
2023-01-12T00:39:43.012Z,8.70
2023-01-12T00:42:37.262Z,8.82
2023-01-12T00:45:24.996Z,8.95
2023-01-12T00:47:54.853Z,8.05
2023-01-12T00:50:23.204Z,8.50
2023-01-12T00:52:51.359Z,7.93
2023-01-12T00:55:19.640Z,8.57
2023-01-12T00:57:47.671Z,7.45
2023-01-12T01:00:17.018Z,6.60
2023-01-12T01:02:45.135Z,6.28
2023-01-12T01:05:14.936Z,6.15
2023-01-12T01:07:42.862Z,6.22
2023-01-12T01:10:12.242Z,4.80
2023-01-12T01:12:40.375Z,4.43
2023-01-12T01:15:10.094Z,4.38
2023-01-12T01:17:38.162Z,5.25
2023-01-12T01:20:06.875Z,4.50
2023-01-12T01:22:36.474Z,4.18
2023-01-12T01:25:04.757Z,4.22
2023-01-12T01:27:32.734Z,3.38
2023-01-12T01:30:00.892Z,3.40
2023-01-12T01:32:34.429Z,2.92
2023-01-12T01:35:02.837Z,3.47
2023-01-12T01:37:31.182Z,3.05
2023-01-12T01:40:00.750Z,2.55
2023-01-12T01:42:28.831Z,2.60
2023-01-12T01:44:58.797Z,2.78
2023-01-12T01:47:32.148Z,2.92
2023-01-12T01:50:02.486Z,3.13
2023-01-12T01:52:34.639Z,3.55
2023-01-12T01:55:07.384Z,3.38
2023-01-12T01:57:41.166Z,4.70
2023-01-12T02:00:11.348Z,4.13
2023-01-12T02:02:41.504Z,4.78
2023-01-12T02:05:11.082Z,4.88
2023-01-12T02:07:39.660Z,4.40
2023-01-12T02:10:10.546Z,4.85
2023-01-12T02:12:57.634Z,5.32
2023-01-12T02:15:46.984Z,4.65
2023-01-12T02:18:22.509Z,4.72
2023-01-12T02:21:03.818Z,5.35
2023-01-12T02:24:09.667Z,5.10
2023-01-12T02:27:18.461Z,6.03
2023-01-12T02:30:19.410Z,5.47
2023-01-12T02:32:56.619Z,4.30
2023-01-12T02:35:31.584Z,4.60
2023-01-12T02:38:07.592Z,4.80
2023-01-12T02:40:44.633Z,4.55
2023-01-12T02:45:53.037Z,5.22
2023-01-12T02:48:27.787Z,5.15
2023-01-12T02:51:01.716Z,4.93
2023-01-12T02:53:34.270Z,5.20
2023-01-12T02:56:05.557Z,5.35
2023-01-12T02:58:36.957Z,5.05
2023-01-12T03:01:06.596Z,4.55
2023-01-12T03:03:39.914Z,4.90
2023-01-12T03:06:08.719Z,5.78
2023-01-12T03:08:38.362Z,6.97
2023-01-12T03:11:15.019Z,5.70
2023-01-12T03:13:48.727Z,5.65
2023-01-12T03:16:21.062Z,5.40
2023-01-12T03:18:54.905Z,5.32
2023-01-12T03:21:28.168Z,5.10
2023-01-12T03:24:01.211Z,4.88
2023-01-12T03:26:32.436Z,4.97
2023-01-12T03:29:05.362Z,4.60
2023-01-12T03:31:33.747Z,5.20
2023-01-12T03:34:03.220Z,4.97
2023-01-12T03:36:41.796Z,4.90
2023-01-12T03:39:17.108Z,4.50
2023-01-12T03:41:55.003Z,4.78
2023-01-12T03:44:30.705Z,4.72
2023-01-12T03:47:02.639Z,4.47
2023-01-12T03:49:35.033Z,4.38
2023-01-12T03:52:04.613Z,3.78
2023-01-12T03:54:34.557Z,4.18
2023-01-12T03:57:04.013Z,3.88
2023-01-12T03:59:31.998Z,4.07
2023-01-12T04:02:00.034Z,3.50
2023-01-12T04:04:27.839Z,3.40
2023-01-12T04:06:57.373Z,3.75
2023-01-12T04:09:26.134Z,4.15
2023-01-12T04:12:12.060Z,3.72
2023-01-12T04:14:41.054Z,3.45
2023-01-12T04:17:10.101Z,3.67
2023-01-12T04:19:38.287Z,3.80
2023-01-12T04:22:27.763Z,3.38
2023-01-12T04:24:55.550Z,3.85
2023-01-12T04:27:23.328Z,3.60
2023-01-12T04:29:51.222Z,3.83
2023-01-12T04:32:18.958Z,2.88
2023-01-12T04:34:47.181Z,3.45
2023-01-12T04:37:16.347Z,3.60
2023-01-12T04:39:44.378Z,3.75
2023-01-12T04:42:32.235Z,3.30
2023-01-12T04:45:00.222Z,2.83
2023-01-12T04:47:28.092Z,3.17
2023-01-12T04:49:56.003Z,3.40
2023-01-12T04:52:25.404Z,3.35
2023-01-12T04:54:55.103Z,3.50
2023-01-12T04:57:24.524Z,5.20
2023-01-12T04:59:52.422Z,4.15
2023-01-12T05:02:20.524Z,3.20
2023-01-12T05:04:48.925Z,3.58
2023-01-12T05:07:17.518Z,3.03
2023-01-12T05:10:05.541Z,3.22
2023-01-12T05:12:33.564Z,3.60
2023-01-12T05:15:01.610Z,3.67
2023-01-12T05:17:29.662Z,4.30
2023-01-12T05:19:59.868Z,3.67
2023-01-12T05:22:28.745Z,4.18
2023-01-12T05:24:58.093Z,3.63
2023-01-12T05:27:26.069Z,3.80
2023-01-12T05:29:53.977Z,4.07
2023-01-12T05:32:22.036Z,4.13
2023-01-12T05:34:49.912Z,4.18
2023-01-12T05:37:18.048Z,4.20
2023-01-12T05:39:45.894Z,5.43
2023-01-12T05:42:53.721Z,5.20
2023-01-12T05:45:21.712Z,4.95
2023-01-12T05:47:57.535Z,4.60
2023-01-12T05:50:25.583Z,3.85
2023-01-12T05:53:08.413Z,4.32
2023-01-12T05:55:37.719Z,3.80
2023-01-12T05:58:07.067Z,3.60
2023-01-12T06:00:35.087Z,3.53
2023-01-12T06:03:03.177Z,3.80
2023-01-12T06:05:31.153Z,3.88
2023-01-12T06:07:59.603Z,3.38
2023-01-12T06:10:27.697Z,3.55
2023-01-12T06:13:13.852Z,3.30
2023-01-12T06:15:43.287Z,4.00
2023-01-12T06:18:11.516Z,3.50
2023-01-12T06:20:39.444Z,3.67
2023-01-12T06:23:07.412Z,4.78
2023-01-12T06:25:35.465Z,4.88
2023-01-12T06:28:06.049Z,4.35
2023-01-12T06:30:34.084Z,4.32
2023-01-12T06:33:04.396Z,4.53
2023-01-12T06:35:32.607Z,4.90
2023-01-12T06:38:00.836Z,5.10
2023-01-12T06:40:29.016Z,5.15
2023-01-12T06:42:57.015Z,4.60
2023-01-12T06:45:25.088Z,5.60
2023-01-12T06:47:53.254Z,4.68
2023-01-12T06:50:22.734Z,4.53
2023-01-12T06:52:50.919Z,4.38
2023-01-12T06:55:19.334Z,5.10
2023-01-12T06:57:47.338Z,4.60
2023-01-12T07:00:15.867Z,4.55
2023-01-12T07:02:43.942Z,4.85
2023-01-12T07:05:11.879Z,4.00
2023-01-12T07:07:41.589Z,3.45
2023-01-12T07:10:11.369Z,3.58
2023-01-12T07:12:39.649Z,3.85
2023-01-12T07:15:09.118Z,3.72
2023-01-12T07:17:37.231Z,4.00
2023-01-12T07:20:06.179Z,3.70
2023-01-12T07:22:34.208Z,3.05
2023-01-12T07:25:03.825Z,3.63
2023-01-12T07:27:31.736Z,3.97
2023-01-12T07:29:59.807Z,3.83
2023-01-12T07:32:29.767Z,4.72
2023-01-12T07:34:58.377Z,4.10
2023-01-12T07:37:26.296Z,4.80
2023-01-12T07:39:54.547Z,4.40
2023-01-12T07:42:23.928Z,4.65
2023-01-12T07:44:52.987Z,4.82
2023-01-12T07:47:21.157Z,5.47
2023-01-12T07:49:49.172Z,5.70
2023-01-12T07:52:17.157Z,5.97
2023-01-12T07:54:45.251Z,5.57
2023-01-12T07:57:13.258Z,6.45
2023-01-12T07:59:42.882Z,5.80
2023-01-12T08:02:17.025Z,6.90
2023-01-12T08:04:45.579Z,7.22
2023-01-12T08:07:15.134Z,7.80
2023-01-12T08:09:43.264Z,7.13
2023-01-12T08:12:11.319Z,7.63
2023-01-12T08:14:42.184Z,7.68
2023-01-12T08:17:15.055Z,6.88
2023-01-12T08:19:47.246Z,7.22
2023-01-12T08:22:18.999Z,6.88
2023-01-12T08:24:52.134Z,6.45
2023-01-12T08:27:25.206Z,7.32
2023-01-12T08:29:58.849Z,7.20
2023-01-12T08:32:28.813Z,7.88
2023-01-12T08:35:01.833Z,8.60
2023-01-12T08:37:31.370Z,9.25
2023-01-12T08:39:59.567Z,8.27
2023-01-12T08:42:31.910Z,9.60
2023-01-12T08:45:01.546Z,9.40
2023-01-12T08:47:30.818Z,9.55
2023-01-12T08:50:00.728Z,9.93
2023-01-12T08:52:34.961Z,9.57
2023-01-12T08:55:02.933Z,9.07
2023-01-12T08:57:30.950Z,8.50
2023-01-12T09:00:00.521Z,9.27
2023-01-12T09:02:28.565Z,8.80
2023-01-12T09:04:56.561Z,9.02
2023-01-12T09:07:24.612Z,9.38
2023-01-12T09:09:52.570Z,8.45
2023-01-12T09:12:22.103Z,9.15
2023-01-12T09:14:51.296Z,9.30
2023-01-12T09:17:23.169Z,8.15
2023-01-12T09:19:51.803Z,7.97
2023-01-12T09:22:19.681Z,7.05
2023-01-12T09:24:47.794Z,6.88
2023-01-12T09:27:15.781Z,5.68
2023-01-12T09:29:43.887Z,5.95
2023-01-12T09:32:11.743Z,5.90
2023-01-12T09:34:41.356Z,7.28
2023-01-12T09:37:09.335Z,8.32
2023-01-12T09:39:37.302Z,8.18
2023-01-12T09:42:25.088Z,8.95
2023-01-12T09:45:12.230Z,6.85
2023-01-12T09:47:49.172Z,5.03
2023-01-12T09:50:22.529Z,5.25
2023-01-12T09:52:53.199Z,4.85
2023-01-12T09:55:23.515Z,4.47
2023-01-12T09:58:13.191Z,3.92
2023-01-12T10:00:41.314Z,3.30
2023-01-12T10:03:16.670Z,3.08
2023-01-12T10:05:49.866Z,3.30
2023-01-12T10:08:25.844Z,2.83
2023-01-12T10:11:06.010Z,3.15
2023-01-12T10:14:06.515Z,2.95
2023-01-12T10:16:47.371Z,2.38
2023-01-12T10:19:22.752Z,2.88
2023-01-12T10:21:54.002Z,4.80
2023-01-12T10:24:24.071Z,7.22
2023-01-12T10:26:57.564Z,5.60
2023-01-12T10:29:29.392Z,4.55
2023-01-12T10:31:57.668Z,4.07
2023-01-12T10:34:25.790Z,4.15
2023-01-12T10:37:01.171Z,4.10
2023-01-12T10:39:31.927Z,3.67
2023-01-12T10:42:37.160Z,3.78
2023-01-12T10:45:16.853Z,3.05
2023-01-12T10:47:46.905Z,2.90
2023-01-12T10:50:23.366Z,2.70
2023-01-12T10:55:29.019Z,2.60
2023-01-12T10:57:57.175Z,2.72
2023-01-12T11:00:26.773Z,2.72
2023-01-12T11:02:55.339Z,3.63
2023-01-12T11:05:34.231Z,2.40
2023-01-12T11:08:03.866Z,2.78
2023-01-12T11:10:33.468Z,3.00
2023-01-12T11:13:06.245Z,2.50
2023-01-12T11:15:39.222Z,2.47
2023-01-12T11:18:23.403Z,2.28
2023-01-12T11:20:54.623Z,2.40
2023-01-12T11:23:30.814Z,2.60
2023-01-12T11:26:01.684Z,2.45
2023-01-12T11:28:33.846Z,2.10
2023-01-12T11:31:08.892Z,2.08
2023-01-12T11:33:41.673Z,2.25
2023-01-12T11:36:12.089Z,2.05
2023-01-12T11:38:44.006Z,2.15
2023-01-12T11:41:29.407Z,2.75
2023-01-12T11:44:02.693Z,1.80
2023-01-12T11:46:36.743Z,1.90
2023-01-12T11:49:13.275Z,2.53
2023-01-12T11:51:41.585Z,2.22
2023-01-12T11:54:16.648Z,2.00
2023-01-12T11:57:03.312Z,3.05
2023-01-12T11:59:39.750Z,4.70
2023-01-12T12:02:21.871Z,3.15
2023-01-12T12:05:01.010Z,4.15
2023-01-12T12:07:42.678Z,3.75
2023-01-12T12:10:23.972Z,2.83
2023-01-12T12:13:29.932Z,2.95
2023-01-12T12:16:07.483Z,10.15
2023-01-12T12:18:52.076Z,2.38
2023-01-12T12:21:36.485Z,1.90
2023-01-12T12:24:13.755Z,2.20
2023-01-12T12:26:49.020Z,3.65
2023-01-12T12:29:30.693Z,2.60
2023-01-12T12:32:20.326Z,1.88
2023-01-12T12:35:05.745Z,2.20
2023-01-12T12:37:49.078Z,2.13
2023-01-12T12:40:31.003Z,2.42
2023-01-12T12:43:32.045Z,2.47
2023-01-12T12:46:10.373Z,2.00
2023-01-12T12:48:49.489Z,2.78
2023-01-12T12:51:18.091Z,2.40
2023-01-12T12:53:49.943Z,2.30
2023-01-12T12:56:20.881Z,2.10
2023-01-12T12:58:51.485Z,2.08
2023-01-12T13:01:55.213Z,1.65
2023-01-12T13:05:03.192Z,2.30
2023-01-12T13:07:37.280Z,1.85
2023-01-12T13:10:21.331Z,1.60
2023-01-12T13:12:58.565Z,1.90
2023-01-12T13:15:32.792Z,1.95
2023-01-12T13:18:00.793Z,1.73
2023-01-12T13:20:53.315Z,2.10
2023-01-12T13:23:50.847Z,2.70
2023-01-12T13:26:46.101Z,2.50
2023-01-12T13:29:42.459Z,2.38
2023-01-12T13:32:35.716Z,2.00
2023-01-12T13:35:04.667Z,1.90
2023-01-12T13:37:45.133Z,1.77
2023-01-12T13:40:19.595Z,1.52
2023-01-12T13:43:08.899Z,1.75
2023-01-12T13:45:37.761Z,2.15
2023-01-12T13:48:09.311Z,2.58
2023-01-12T13:50:37.873Z,1.88
2023-01-12T13:53:06.136Z,3.05
2023-01-12T13:55:36.407Z,2.50
2023-01-12T14:21:25.573Z,2.08
2023-01-12T14:23:53.968Z,3.70
2023-01-12T14:26:24.187Z,2.30
2023-01-12T14:28:53.325Z,2.08
2023-01-12T14:31:27.753Z,1.85
2023-01-12T14:33:58.642Z,2.00
2023-01-12T14:36:29.864Z,2.13
2023-01-12T14:39:00.139Z,1.83
2023-01-12T14:41:48.773Z,1.80
2023-01-12T14:44:37.655Z,2.50
2023-01-12T14:47:05.916Z,1.90
2023-01-12T14:49:34.908Z,1.63
2023-01-12T14:52:23.704Z,1.83
2023-01-12T14:54:52.427Z,1.70
2023-01-12T14:57:24.135Z,1.52
2023-01-12T14:59:52.797Z,1.75
2023-01-12T15:02:30.370Z,1.50
2023-01-12T15:05:01.779Z,8.80
2023-01-12T15:07:34.645Z,4.40
2023-01-12T15:10:23.386Z,2.67
2023-01-12T15:12:54.319Z,3.20
2023-01-12T15:15:24.351Z,2.13
2023-01-12T15:18:12.362Z,2.10
2023-01-12T15:21:01.278Z,2.63
2023-01-12T15:23:51.807Z,2.60
2023-01-12T15:26:20.789Z,2.20
2023-01-12T15:28:49.109Z,10.57
2023-01-12T15:31:21.769Z,5.65
2023-01-12T15:33:49.774Z,3.53
2023-01-12T15:36:17.795Z,4.10
2023-01-12T15:38:47.090Z,3.60
2023-01-12T15:41:18.089Z,3.65
2023-01-12T15:43:46.225Z,3.90
2023-01-12T15:46:20.300Z,3.63
2023-01-12T15:48:48.200Z,3.58
2023-01-12T15:51:16.639Z,3.15
2023-01-12T15:53:44.425Z,11.43
2023-01-12T15:56:15.514Z,11.13
2023-01-12T15:58:43.380Z,11.35
2023-01-12T16:01:16.366Z,6.07
2023-01-12T16:04:09.603Z,5.60
2023-01-12T16:06:32.694Z,5.25
2023-01-12T16:09:01.174Z,5.95
2023-01-12T16:11:36.025Z,5.65
2023-01-12T16:14:04.081Z,6.53
2023-01-12T16:16:31.819Z,5.50
2023-01-12T16:19:00.056Z,8.02
2023-01-12T16:21:29.418Z,8.95
2023-01-12T16:23:58.260Z,9.10
2023-01-12T16:26:31.929Z,13.45
2023-01-12T16:29:15.357Z,11.90
2023-01-12T16:31:43.669Z,11.00
2023-01-12T16:34:11.756Z,11.02
2023-01-12T16:36:39.608Z,11.38
2023-01-12T16:39:07.513Z,11.60
2023-01-12T16:41:37.019Z,11.38
2023-01-12T16:44:05.260Z,12.68
2023-01-12T16:46:32.995Z,15.75
2023-01-12T16:49:02.943Z,15.32
2023-01-12T16:51:30.756Z,13.43
2023-01-12T16:53:59.614Z,9.15
2023-01-12T16:56:27.288Z,10.18
2023-01-12T16:58:57.640Z,6.22
2023-01-12T17:01:26.534Z,6.85
2023-01-12T17:03:58.438Z,8.23
2023-01-12T17:06:28.001Z,7.25
2023-01-12T17:08:56.553Z,6.68
2023-01-12T17:11:25.110Z,8.20
2023-01-12T17:13:54.590Z,9.43
2023-01-12T17:16:25.761Z,8.63
2023-01-12T17:18:54.253Z,4.55
2023-01-12T17:21:22.968Z,4.97
2023-01-12T17:23:51.013Z,5.65
2023-01-12T17:26:19.455Z,6.57
2023-01-12T17:28:47.967Z,5.82
2023-01-12T17:31:18.220Z,8.25
2023-01-12T17:33:48.006Z,9.82
2023-01-12T17:36:17.270Z,8.95
2023-01-12T17:38:45.186Z,9.65
2023-01-12T17:41:35.281Z,10.50
2023-01-12T17:44:05.770Z,11.45
2023-01-12T17:46:34.016Z,11.00
2023-01-12T17:49:06.352Z,11.88
2023-01-12T17:51:34.580Z,11.43
2023-01-12T17:54:03.521Z,11.18
2023-01-12T17:56:33.221Z,10.57
2023-01-12T17:59:02.186Z,10.70
2023-01-12T18:01:32.207Z,10.20
2023-01-12T18:04:02.979Z,9.50
2023-01-12T18:06:32.229Z,9.48
2023-01-12T18:09:01.018Z,8.38
2023-01-12T18:11:30.046Z,8.68
2023-01-12T18:13:59.260Z,8.18
2023-01-12T18:16:28.712Z,7.88
2023-01-12T18:18:57.197Z,8.07
2023-01-12T18:21:28.189Z,7.80
2023-01-12T18:23:57.433Z,8.30
2023-01-12T18:26:27.322Z,9.25
2023-01-12T18:28:56.984Z,10.20
2023-01-12T18:31:29.119Z,11.25
2023-01-12T18:34:21.717Z,11.13
2023-01-12T18:36:52.335Z,12.45
2023-01-12T18:39:21.583Z,13.50
2023-01-12T18:42:09.351Z,14.80
2023-01-12T18:44:39.343Z,17.20
2023-01-12T18:47:27.411Z,18.67
2023-01-12T18:49:58.032Z,20.88
2023-01-12T18:52:46.482Z,20.10
2023-01-12T18:55:14.929Z,18.45
2023-01-12T18:57:43.296Z,20.45
2023-01-12T19:00:18.200Z,20.50
2023-01-12T19:02:47.379Z,18.63
2023-01-12T19:05:20.712Z,19.10
2023-01-12T19:08:00.158Z,19.10
2023-01-12T19:10:29.685Z,21.25
2023-01-12T19:13:17.266Z,22.50
2023-01-12T19:16:04.365Z,25.45
2023-01-12T19:18:35.368Z,23.20
2023-01-12T19:21:27.227Z,21.63
2023-01-12T19:24:15.547Z,17.85
2023-01-12T19:27:02.394Z,18.33
2023-01-12T19:29:31.062Z,17.05
2023-01-12T19:31:59.374Z,15.93
2023-01-12T19:34:28.078Z,16.33
2023-01-12T19:36:56.647Z,15.15
2023-01-12T19:39:49.238Z,15.38
2023-01-12T19:42:36.623Z,17.08
2023-01-12T19:45:09.743Z,18.98
2023-01-12T19:47:38.697Z,19.30
2023-01-12T19:50:08.649Z,18.17
2023-01-12T19:52:37.610Z,19.00
2023-01-12T19:55:12.088Z,17.90
2023-01-12T19:57:41.544Z,16.17
2023-01-12T20:00:12.887Z,17.83
2023-01-12T20:02:41.465Z,15.95
2023-01-12T20:05:13.315Z,16.02
2023-01-12T20:07:41.967Z,14.98
2023-01-12T20:10:20.969Z,13.88
2023-01-12T20:12:51.997Z,13.05
2023-01-12T20:15:21.125Z,12.45
2023-01-12T20:17:50.490Z,14.10
2023-01-12T20:20:19.469Z,11.75
2023-01-12T20:22:50.819Z,11.30
2023-01-12T20:25:21.393Z,12.02
2023-01-12T20:27:50.502Z,11.68
2023-01-12T20:30:36.512Z,10.85
2023-01-12T20:33:06.578Z,15.10
2023-01-12T20:35:35.804Z,14.43
2023-01-12T20:38:07.151Z,13.85
2023-01-12T20:40:39.290Z,11.43
2023-01-12T20:43:07.809Z,11.85
2023-01-12T20:45:36.050Z,8.60
2023-01-12T20:48:06.573Z,7.75
2023-01-12T20:50:36.077Z,10.00
2023-01-12T20:53:04.712Z,11.27
2023-01-12T20:55:33.295Z,10.50
2023-01-12T20:58:03.149Z,10.45
2023-01-12T21:00:32.314Z,10.43
2023-01-12T21:03:00.698Z,11.20
2023-01-12T21:05:29.422Z,11.75
2023-01-12T21:08:07.440Z,12.32
2023-01-12T21:10:37.281Z,12.13
2023-01-12T21:13:07.645Z,12.30
2023-01-12T21:15:36.175Z,11.90
2023-01-12T21:18:04.804Z,10.70
2023-01-12T21:20:33.415Z,10.05
2023-01-12T21:23:01.730Z,9.05
2023-01-12T21:25:30.127Z,9.02
2023-01-12T21:27:58.478Z,8.32
2023-01-12T21:30:28.914Z,8.75
2023-01-12T21:32:57.279Z,8.95
2023-01-12T21:35:26.815Z,9.70
2023-01-12T21:37:55.153Z,8.35
2023-01-12T21:40:23.530Z,8.98
2023-01-12T21:43:10.211Z,9.18
2023-01-12T21:45:42.936Z,8.63
2023-01-12T21:48:12.570Z,9.15
2023-01-12T21:50:41.007Z,9.43
2023-01-12T21:53:12.703Z,9.18
2023-01-12T21:55:41.009Z,10.10
2023-01-12T21:58:09.555Z,8.65
2023-01-12T22:00:39.326Z,9.32
2023-01-12T22:03:07.689Z,9.23
2023-01-12T22:05:36.650Z,9.55
2023-01-12T22:08:04.755Z,10.02
2023-01-12T22:10:33.579Z,9.80
2023-01-12T22:13:05.952Z,8.73
2023-01-12T22:15:34.238Z,7.95
2023-01-12T22:18:03.847Z,7.80
2023-01-12T22:20:31.749Z,8.05
2023-01-12T22:23:00.194Z,8.05
2023-01-12T22:25:28.163Z,7.72
2023-01-12T22:27:56.963Z,8.82
2023-01-12T22:30:24.970Z,9.02
2023-01-12T22:32:54.748Z,8.65
2023-01-12T22:35:27.450Z,8.55
2023-01-12T22:37:55.993Z,8.43
2023-01-12T22:40:23.674Z,7.38
2023-01-12T22:43:10.784Z,7.97
2023-01-12T22:45:38.694Z,7.88
2023-01-12T22:48:06.980Z,8.27
2023-01-12T22:50:36.553Z,7.20
2023-01-12T22:53:04.338Z,7.65
2023-01-12T22:55:32.153Z,7.85
2023-01-12T22:58:00.473Z,8.30
2023-01-12T23:00:28.087Z,8.27
2023-01-12T23:03:02.022Z,8.40
2023-01-12T23:05:32.668Z,8.43
2023-01-12T23:08:02.073Z,7.93
2023-01-12T23:10:29.910Z,7.93
2023-01-12T23:13:16.496Z,8.23
2023-01-12T23:15:47.074Z,8.15
2023-01-12T23:18:16.081Z,7.47
2023-01-12T23:20:43.741Z,7.82
2023-01-12T23:23:13.694Z,6.60
2023-01-12T23:25:44.691Z,7.38
2023-01-12T23:28:14.023Z,6.88
2023-01-12T23:30:42.305Z,5.95
2023-01-12T23:33:11.707Z,6.30
2023-01-12T23:35:41.536Z,6.72
2023-01-12T23:38:16.864Z,7.05
2023-01-12T23:40:45.041Z,6.45
2023-01-12T23:43:12.681Z,6.32
2023-01-12T23:45:40.249Z,6.97
2023-01-12T23:48:07.997Z,6.30
2023-01-12T23:50:35.564Z,6.55
2023-01-12T23:53:03.241Z,6.72
2023-01-12T23:55:32.277Z,6.45
2023-01-12T23:58:00.329Z,7.30
